Aviation Digital Data Service (ADDS)

Output produced by METARs form (1826 UTC 28 July 2014)
found at http://aviationweather.gov/adds/metars/
 
KCON 281726Z 2818/2918 18010KT P6SM VCSH SCT015 BKN040 
     FM282000 18010KT 1 1/2SM SHRA BR VCTS BKN015 OVC025CB 
     FM290300 22005KT 1 1/2SM -SHRA BR BKN005 OVC015 
     FM290500 27003KT 3/4SM BR BKN002 
     FM291100 27005KT 3SM BR SCT002 BKN040 
     FM291200 29010KT P6SM BKN040